Terminal Aerodrome Forecast
Issued by NWS Wichita, KS

Home | Current Version | Previous Version | Graphics & Text | Print | Product List | Glossary On
Versions: 1 2 3 4 5 6 7 8 9 10 11 12 13 14 15 16 17
000
FTUS43 KICT 191700 AAD
TAFICT
TAF AMD
KICT 191701Z 1917/2012 18011KT P6SM BKN025
     FM191900 19012KT P6SM SCT035
     FM200100 16009KT P6SM SCT250=

USA.gov is the U.S. government's official web portal to all federal, state and local government web resources and services.